createdAt,value
2022-10-07T00:04:10.203Z,0.011
2022-10-07T00:09:22.127Z,0.012
2022-10-07T00:14:33.886Z,-0.006
2022-10-07T00:19:45.756Z,-0.011
2022-10-07T00:24:57.625Z,0.016
2022-10-07T00:30:09.882Z,0.005
2022-10-07T00:35:21.587Z,0.016
2022-10-07T00:40:33.754Z,0.009
2022-10-07T00:45:45.725Z,0.01
2022-10-07T00:50:57.817Z,0.012
2022-10-07T00:56:09.716Z,0.011
2022-10-07T01:01:21.753Z,0.005
2022-10-07T01:06:33.793Z,0.007
2022-10-07T01:11:45.677Z,0.011
2022-10-07T01:16:57.495Z,-0.003
2022-10-07T01:22:09.855Z,-0.002
2022-10-07T01:27:21.678Z,0.013
2022-10-07T01:32:33.515Z,0.009
2022-10-07T01:37:45.667Z,0.012
2022-10-07T01:42:58.828Z,0.008
2022-10-07T01:48:10.615Z,-0.001
2022-10-07T01:53:22.454Z,0.015
2022-10-07T01:58:34.060Z,0.02
2022-10-07T02:03:46.365Z,-0.022
2022-10-07T02:08:58.944Z,0.012
2022-10-07T02:14:10.908Z,0.009
2022-10-07T02:19:22.864Z,0.011
2022-10-07T02:24:34.584Z,0.017
2022-10-07T02:29:46.380Z,0.015
2022-10-07T02:34:58.435Z,0.015
2022-10-07T02:40:12.334Z,0.017
2022-10-07T02:45:26.756Z,0.009
2022-10-07T02:50:37.855Z,0.012
2022-10-07T02:55:49.756Z,0.021
2022-10-07T03:01:01.689Z,0.018
2022-10-07T03:06:13.561Z,0.014
2022-10-07T03:11:25.276Z,0.007
2022-10-07T03:16:37.254Z,0.007
2022-10-07T03:21:49.006Z,0
2022-10-07T03:27:00.986Z,-0.006
2022-10-07T03:32:12.969Z,0.01
2022-10-07T03:37:25.055Z,-0.001
2022-10-07T03:42:36.746Z,0.006
2022-10-07T03:47:49.610Z,0.018
2022-10-07T03:53:01.118Z,0
2022-10-07T03:58:12.986Z,0.012
2022-10-07T04:03:24.846Z,0.007
2022-10-07T04:08:37.218Z,0.005
2022-10-07T04:13:49.203Z,0.019
2022-10-07T04:19:01.270Z,0.018
2022-10-07T04:24:13.608Z,0.01
2022-10-07T04:29:25.637Z,0.019
2022-10-07T04:34:37.634Z,0.013
2022-10-07T04:40:00.479Z,0.023
2022-10-07T04:45:12.859Z,0.028
2022-10-07T04:50:24.662Z,-0.009
2022-10-07T04:55:36.547Z,0.035
2022-10-07T05:00:48.572Z,0.033
2022-10-07T05:06:04.667Z,0.006
2022-10-07T05:11:20.148Z,0.015
2022-10-07T05:16:32.237Z,0.009
2022-10-07T05:21:44.600Z,0.015
2022-10-07T05:26:56.557Z,0.013
2022-10-07T05:32:08.544Z,0.015
2022-10-07T05:37:20.552Z,0.038
2022-10-07T05:42:32.638Z,0.025
2022-10-07T05:47:44.846Z,0.027
2022-10-07T05:52:58.532Z,0.035
2022-10-07T05:58:10.548Z,0.023
2022-10-07T06:03:22.530Z,0.031
2022-10-07T06:08:34.772Z,0.029
2022-10-07T06:13:46.670Z,0.023
2022-10-07T06:18:58.789Z,0.029
2022-10-07T06:24:10.691Z,0.026
2022-10-07T06:29:22.559Z,0.032
2022-10-07T06:34:34.570Z,0.029
2022-10-07T06:39:46.608Z,0.023
2022-10-07T06:44:59.040Z,0.035
2022-10-07T06:50:11.088Z,0.042
2022-10-07T06:55:22.991Z,0.049
2022-10-07T07:00:34.949Z,0.06
2022-10-07T07:05:47.771Z,0.05
2022-10-07T07:11:04.831Z,0.036
2022-10-07T07:16:16.868Z,0.057
2022-10-07T07:21:29.020Z,0.045
2022-10-07T07:26:41.146Z,0.048
2022-10-07T07:31:53.379Z,0.029
2022-10-07T07:37:05.667Z,0.052
2022-10-07T07:42:17.883Z,0.043
2022-10-07T07:47:30.276Z,0.045
2022-10-07T07:52:42.441Z,0.045
2022-10-07T07:57:54.705Z,0.045
2022-10-07T08:03:07.031Z,0.043
2022-10-07T08:08:19.241Z,0.049
2022-10-07T08:13:33.767Z,0.053
2022-10-07T08:18:46.230Z,0.035
2022-10-07T08:23:58.790Z,0.055
2022-10-07T08:29:11.247Z,0.039
2022-10-07T08:34:23.454Z,0.054
2022-10-07T08:39:35.920Z,0.066
2022-10-07T08:44:48.561Z,0.058
2022-10-07T08:50:00.810Z,0.055
2022-10-07T08:55:13.300Z,0.057
2022-10-07T09:00:25.617Z,0.055
2022-10-07T09:05:38.287Z,0.063
2022-10-07T09:10:50.831Z,0.037
2022-10-07T09:16:03.370Z,0.068
2022-10-07T09:21:16.011Z,0.076
2022-10-07T09:26:28.511Z,0.062
2022-10-07T09:31:41.074Z,0.067
2022-10-07T09:36:53.461Z,0.063
2022-10-07T09:42:05.892Z,0.045
2022-10-07T09:47:18.474Z,0.037
2022-10-07T09:52:30.980Z,0.036
2022-10-07T09:57:43.691Z,0.066
2022-10-07T10:03:00.137Z,0.046
2022-10-07T10:08:16.702Z,0.045
2022-10-07T10:13:29.275Z,0.043
2022-10-07T10:18:41.923Z,0.052
2022-10-07T10:23:54.570Z,0.05
2022-10-07T10:29:07.030Z,0.062
2022-10-07T10:34:19.484Z,0.043
2022-10-07T10:39:32.041Z,0.043
2022-10-07T10:44:44.611Z,0.028
2022-10-07T10:49:57.197Z,0.056
2022-10-07T10:55:09.840Z,0.066
2022-10-07T11:00:22.232Z,0.059
2022-10-07T11:05:34.835Z,0.07
2022-10-07T11:10:48.080Z,0.357
2022-10-07T11:16:03.420Z,0.555
2022-10-07T11:21:18.644Z,0.332
2022-10-07T11:26:34.807Z,0.186
2022-10-07T11:31:48.199Z,0.06
2022-10-07T11:42:12.777Z,-0.009
2022-10-07T11:47:26.045Z,0.115
2022-10-07T11:52:39.117Z,0.061
2022-10-07T12:08:13.481Z,-0.023
2022-10-07T12:18:37.558Z,0.094
2022-10-07T12:23:50.223Z,0.095
2022-10-07T12:39:24.942Z,0.162
2022-10-07T12:44:37.637Z,0.107
2022-10-07T12:49:50.757Z,0.032
2022-10-07T12:55:03.950Z,-0.036
2022-10-07T13:05:27.487Z,-0.017
2022-10-07T13:15:50.681Z,0.132
2022-10-07T13:21:03.227Z,0.024
2022-10-07T13:41:45.803Z,-0.042
2022-10-07T13:52:08.852Z,-0.039
2022-10-07T13:57:21.456Z,0.005
2022-10-07T14:43:56.879Z,-0.019
2022-10-07T14:49:09.561Z,-0.026
2022-10-07T14:54:21.832Z,-0.005
2022-10-07T14:59:34.135Z,-0.032
2022-10-07T15:04:46.679Z,-0.038
2022-10-07T15:09:59.602Z,-0.01
2022-10-07T15:20:22.305Z,-0.011
2022-10-07T15:25:34.822Z,-0.031
2022-10-07T15:30:47.437Z,-0.015
2022-10-07T15:36:00.004Z,-0.019
2022-10-07T15:46:22.635Z,-0.042
2022-10-07T15:51:35.138Z,-0.03
2022-10-07T15:56:47.634Z,-0.014
2022-10-07T16:07:10.113Z,0
2022-10-07T16:12:22.460Z,-0.015
2022-10-07T16:53:44.453Z,-0.024
2022-10-07T17:04:06.878Z,-0.015
2022-10-07T17:09:19.568Z,-0.049
2022-10-07T17:14:31.914Z,-0.011
2022-10-07T17:19:44.315Z,-0.027
2022-10-07T17:24:56.435Z,-0.027
2022-10-07T17:30:08.604Z,-0.04
2022-10-07T17:35:20.864Z,-0.028
2022-10-07T17:40:33.064Z,-0.011
2022-10-07T17:45:45.085Z,-0.019
2022-10-07T17:50:57.194Z,-0.009
2022-10-07T17:56:09.315Z,-0.013
2022-10-07T18:01:21.651Z,0.006
2022-10-07T18:06:33.909Z,-0.01
2022-10-07T18:11:46.057Z,-0.025
2022-10-07T18:16:58.302Z,-0.021
2022-10-07T18:22:10.343Z,-0.046
2022-10-07T18:27:22.531Z,0.01
2022-10-07T18:32:34.575Z,0.009
2022-10-07T18:37:46.865Z,0
2022-10-07T18:43:00.048Z,0.012
2022-10-07T18:48:12.202Z,-0.01
2022-10-07T18:53:24.363Z,0.003
2022-10-07T18:58:36.369Z,-0.004
2022-10-07T19:03:48.533Z,-0.014
2022-10-07T19:09:00.534Z,0
2022-10-07T19:14:12.525Z,-0.002
2022-10-07T19:19:24.727Z,0.009
2022-10-07T19:24:36.902Z,0.008
2022-10-07T19:29:49.066Z,0.005
2022-10-07T19:35:01.144Z,0
2022-10-07T19:40:13.143Z,-0.018
2022-10-07T19:45:25.637Z,0
2022-10-07T19:50:38.023Z,0.019
2022-10-07T19:55:50.278Z,0.003
2022-10-07T20:01:02.679Z,0
2022-10-07T20:06:15.286Z,-0.004
2022-10-07T20:11:27.447Z,-0.007
2022-10-07T20:16:39.807Z,-0.012
2022-10-07T20:21:52.217Z,-0.001
2022-10-07T20:27:04.434Z,-0.02
2022-10-07T20:32:16.942Z,-0.004
2022-10-07T20:37:29.294Z,-0.003
2022-10-07T20:42:46.039Z,0.005
2022-10-07T20:48:04.857Z,0.005
2022-10-07T20:53:16.986Z,-0.012
2022-10-07T20:58:29.127Z,-0.004
2022-10-07T21:03:41.182Z,0.006
2022-10-07T21:08:53.398Z,-0.009
2022-10-07T21:14:05.487Z,0
2022-10-07T21:19:17.482Z,0.003
2022-10-07T21:24:29.780Z,0.006
2022-10-07T21:29:43.257Z,-0.003
2022-10-07T21:34:59.950Z,0.006
2022-10-07T21:40:14.743Z,0.004
2022-10-07T21:45:26.038Z,0.002
2022-10-07T21:50:38.410Z,-0.005
2022-10-07T21:55:50.727Z,-0.005
2022-10-07T22:01:03.013Z,0.009
2022-10-07T22:06:15.308Z,0.013
2022-10-07T22:11:27.407Z,0.018
2022-10-07T22:16:39.467Z,0.011
2022-10-07T22:21:51.634Z,0.014
2022-10-07T22:27:03.781Z,0.004
2022-10-07T22:32:15.896Z,0.005
2022-10-07T22:37:27.990Z,0.002
2022-10-07T22:42:40.229Z,0.016
2022-10-07T22:47:52.215Z,0.01
2022-10-07T22:53:04.349Z,0.009
2022-10-07T22:58:16.315Z,-0.009
2022-10-07T23:03:28.450Z,0.005
2022-10-07T23:08:40.691Z,-0.004
2022-10-07T23:13:52.786Z,0.003
2022-10-07T23:19:04.796Z,0.022
2022-10-07T23:24:16.870Z,0.007
2022-10-07T23:29:28.935Z,-0.018
2022-10-07T23:34:41.116Z,0.022
2022-10-07T23:39:53.374Z,0.017
2022-10-07T23:45:05.415Z,0.018
2022-10-07T23:50:17.397Z,0.01
2022-10-07T23:55:29.657Z,0
